createdAt,value
2022-10-25T00:01:56.162Z,96452.81
2022-10-25T00:04:23.439Z,96452.50
2022-10-25T00:06:50.578Z,96453.56
2022-10-25T00:09:17.598Z,96453.81
2022-10-25T00:11:44.618Z,96453.00
2022-10-25T00:14:16.106Z,96446.94
2022-10-25T00:16:43.186Z,96442.19
2022-10-25T00:19:12.059Z,96442.44
2022-10-25T00:21:39.080Z,96437.97
2022-10-25T00:24:06.719Z,96441.66
2022-10-25T00:26:35.298Z,96436.13
2022-10-25T00:29:02.479Z,96428.75
2022-10-25T00:31:29.528Z,96419.06
2022-10-25T00:33:56.518Z,96417.41
2022-10-25T00:36:25.678Z,96412.13
2022-10-25T00:38:53.898Z,96415.28
2022-10-25T00:41:23.820Z,96408.66
2022-10-25T00:43:53.619Z,96412.59
2022-10-25T00:46:24.598Z,96422.06
2022-10-25T00:48:58.137Z,96410.75
2022-10-25T00:51:32.759Z,96412.88
2022-10-25T00:53:59.937Z,96420.00
2022-10-25T00:56:31.917Z,96409.72
2022-10-25T00:59:04.526Z,96415.22
2022-10-25T01:01:31.877Z,96413.38
2022-10-25T01:04:02.437Z,96423.13
2022-10-25T01:06:41.518Z,96428.94
2022-10-25T01:09:11.276Z,96426.84
2022-10-25T01:11:38.382Z,96418.94
2022-10-25T01:14:10.917Z,96415.53
2022-10-25T01:17:05.557Z,96429.47
2022-10-25T01:20:11.518Z,96422.88
2022-10-25T01:22:57.586Z,96424.69
2022-10-25T01:25:57.777Z,96423.63
2022-10-25T01:28:27.718Z,96434.16
2022-10-25T01:31:13.624Z,96433.56
2022-10-25T01:33:55.940Z,96437.53
2022-10-25T01:36:51.218Z,96438.03
2022-10-25T01:39:26.519Z,96433.28
2022-10-25T01:42:32.080Z,96434.84
2022-10-25T01:45:29.898Z,96427.53
2022-10-25T01:48:03.258Z,96423.31
2022-10-25T01:50:35.017Z,96423.31
2022-10-25T01:53:02.038Z,96426.25
2022-10-25T01:55:37.399Z,96430.50
2022-10-25T01:58:30.547Z,96418.88
2022-10-25T02:01:39.010Z,96426.84
2022-10-25T02:04:19.605Z,96417.63
2022-10-25T02:06:52.137Z,96409.47
2022-10-25T02:09:48.099Z,96412.06
2022-10-25T02:12:25.278Z,96406.53
2022-10-25T02:15:06.257Z,96411.53
2022-10-25T02:17:36.218Z,96407.88
2022-10-25T02:20:06.899Z,96402.38
2022-10-25T02:22:35.541Z,96411.31
2022-10-25T02:25:03.259Z,96426.00
2022-10-25T02:27:32.165Z,96424.16
2022-10-25T02:29:59.878Z,96415.22
2022-10-25T02:32:26.938Z,96412.84
2022-10-25T02:34:54.017Z,96413.63
2022-10-25T02:37:21.005Z,96415.75
2022-10-25T02:39:49.577Z,96408.88
2022-10-25T02:42:16.777Z,96413.34
2022-10-25T02:44:43.737Z,96422.59
2022-10-25T02:47:10.777Z,96415.47
2022-10-25T02:49:37.819Z,96418.09
2022-10-25T02:52:04.859Z,96420.47
2022-10-25T02:54:32.057Z,96416.81
2022-10-25T02:56:59.037Z,96413.63
2022-10-25T02:59:26.299Z,96420.47
2022-10-25T03:01:53.437Z,96406.81
2022-10-25T03:04:20.419Z,96416.00
2022-10-25T03:06:48.177Z,96413.13
2022-10-25T03:09:15.198Z,96424.69
2022-10-25T03:11:42.418Z,96421.28
2022-10-25T03:14:09.518Z,96430.22
2022-10-25T03:16:36.624Z,96427.06
2022-10-25T03:19:03.739Z,96424.16
2022-10-25T03:21:30.798Z,96418.09
2022-10-25T03:23:58.940Z,96419.69
2022-10-25T03:26:25.840Z,96422.06
2022-10-25T03:28:52.858Z,96421.00
2022-10-25T03:31:21.338Z,96421.78
2022-10-25T03:33:48.437Z,96426.75
2022-10-25T03:36:15.671Z,96430.44
2022-10-25T03:38:42.679Z,96436.44
2022-10-25T03:41:09.797Z,96440.88
2022-10-25T03:43:36.959Z,96440.38
2022-10-25T03:46:04.326Z,96438.25
2022-10-25T03:48:31.359Z,96432.72
2022-10-25T03:50:58.418Z,96442.44
2022-10-25T03:53:25.576Z,96438.50
2022-10-25T03:55:52.579Z,96449.56
2022-10-25T03:58:20.019Z,96450.34
2022-10-25T04:00:47.154Z,96446.38
2022-10-25T04:03:14.299Z,96435.09
2022-10-25T04:05:41.318Z,96445.88
2022-10-25T04:08:08.385Z,96458.63
2022-10-25T04:10:35.499Z,96454.50
2022-10-25T04:13:02.495Z,96455.81
2022-10-25T04:15:29.598Z,96458.19
2022-10-25T04:17:56.695Z,96463.75
2022-10-25T04:20:23.614Z,96457.47
2022-10-25T04:22:55.394Z,96462.72
2022-10-25T04:25:24.056Z,96463.50
2022-10-25T04:27:51.056Z,96480.38
2022-10-25T04:30:18.197Z,96479.59
2022-10-25T04:32:45.581Z,96481.41
2022-10-25T04:35:13.187Z,96485.13
2022-10-25T04:37:40.249Z,96481.72
2022-10-25T04:40:08.183Z,96474.88
2022-10-25T04:42:35.880Z,96474.88
2022-10-25T04:45:03.158Z,96468.06
2022-10-25T04:47:34.275Z,96458.31
2022-10-25T04:50:01.298Z,96468.06
2022-10-25T04:52:32.374Z,96474.59
2022-10-25T04:54:59.582Z,96467.78
2022-10-25T04:57:27.016Z,96465.94
2022-10-25T04:59:54.356Z,96453.56
2022-10-25T05:02:21.414Z,96451.44
2022-10-25T05:04:48.462Z,96451.44
2022-10-25T05:07:19.514Z,96457.50
2022-10-25T05:09:47.660Z,96443.53
2022-10-25T05:12:15.528Z,96441.41
2022-10-25T05:14:42.762Z,96437.97
2022-10-25T05:17:10.056Z,96429.56
2022-10-25T05:19:37.049Z,96437.19
2022-10-25T05:22:04.236Z,96442.72
2022-10-25T05:24:31.298Z,96444.03
2022-10-25T05:26:58.299Z,96442.44
2022-10-25T05:29:25.634Z,96460.63
2022-10-25T05:31:52.750Z,96450.59
2022-10-25T05:34:19.840Z,96462.41
2022-10-25T05:36:46.943Z,96457.16
2022-10-25T05:39:14.158Z,96456.66
2022-10-25T05:41:41.226Z,96442.97
2022-10-25T05:44:08.535Z,96446.38
2022-10-25T05:46:36.074Z,96447.91
2022-10-25T05:49:04.151Z,96458.94
2022-10-25T05:51:35.731Z,96468.16
2022-10-25T05:54:06.815Z,96475.53
2022-10-25T05:56:34.816Z,96473.38
2022-10-25T05:59:03.702Z,96475.47
2022-10-25T06:01:31.151Z,96483.34
2022-10-25T06:03:58.436Z,96486.25
2022-10-25T06:06:25.438Z,96484.91
2022-10-25T06:09:02.214Z,96485.47
2022-10-25T06:11:30.239Z,96489.69
2022-10-25T06:13:57.386Z,96490.72
2022-10-25T06:16:24.835Z,96497.00
2022-10-25T06:18:53.354Z,96498.59
2022-10-25T06:21:28.493Z,96502.31
2022-10-25T06:23:56.214Z,96498.53
2022-10-25T06:26:25.637Z,96504.91
2022-10-25T06:28:54.958Z,96512.78
2022-10-25T06:31:22.838Z,96513.84
2022-10-25T06:33:49.895Z,96516.22
2022-10-25T06:36:22.355Z,96520.44
2022-10-25T06:38:50.522Z,96526.78
2022-10-25T06:41:23.396Z,96529.19
2022-10-25T06:43:51.095Z,96526.53
2022-10-25T06:46:25.740Z,96520.00
2022-10-25T06:48:54.736Z,96521.53
2022-10-25T06:51:23.256Z,96521.28
2022-10-25T06:54:09.964Z,96529.97
2022-10-25T06:56:37.183Z,96534.72
2022-10-25T06:59:07.535Z,96532.09
2022-10-25T07:01:34.916Z,96545.56
2022-10-25T07:04:03.934Z,96546.34
2022-10-25T07:06:38.196Z,96549.81
2022-10-25T07:09:06.963Z,96559.59
2022-10-25T07:11:34.046Z,96549.41
2022-10-25T07:14:04.520Z,96553.44
2022-10-25T07:16:31.801Z,96555.94
2022-10-25T07:19:00.572Z,96560.19
2022-10-25T07:21:28.929Z,96572.34
2022-10-25T07:23:55.997Z,96569.75
2022-10-25T07:26:34.675Z,96572.53
2022-10-25T07:29:03.510Z,96577.88
2022-10-25T07:31:33.497Z,96560.56
2022-10-25T07:34:02.539Z,96570.69
2022-10-25T07:36:30.255Z,96567.06
2022-10-25T07:38:57.856Z,96562.91
2022-10-25T07:41:25.979Z,96571.63
2022-10-25T07:43:52.957Z,96575.94
2022-10-25T07:46:20.080Z,96573.06
2022-10-25T07:48:47.535Z,96563.03
2022-10-25T07:51:16.655Z,96564.94
2022-10-25T07:53:43.997Z,96560.75
2022-10-25T07:56:18.989Z,96563.13
2022-10-25T07:58:49.513Z,96573.19
2022-10-25T08:01:21.846Z,96565.84
2022-10-25T08:03:49.297Z,96576.94
2022-10-25T08:06:16.413Z,96566.16
2022-10-25T08:08:44.037Z,96567.81
2022-10-25T08:11:11.255Z,96563.84
2022-10-25T08:13:39.375Z,96563.84
2022-10-25T08:16:07.315Z,96566.53
2022-10-25T08:18:35.268Z,96554.38
2022-10-25T08:21:04.073Z,96557.53
2022-10-25T08:23:32.833Z,96558.63
2022-10-25T08:26:01.215Z,96560.19
2022-10-25T08:28:29.156Z,96554.13
2022-10-25T08:30:56.254Z,96557.81
2022-10-25T08:33:25.395Z,96557.00
2022-10-25T08:35:52.615Z,96553.59
2022-10-25T08:38:19.698Z,96553.31
2022-10-25T08:40:51.103Z,96546.44
2022-10-25T08:43:56.333Z,96549.09
2022-10-25T08:46:38.156Z,96548.56
2022-10-25T08:49:15.302Z,96549.09
2022-10-25T08:51:45.174Z,96554.09
2022-10-25T08:54:27.235Z,96545.91
2022-10-25T08:57:15.480Z,96550.34
2022-10-25T08:59:45.359Z,96553.97
2022-10-25T09:02:43.116Z,96556.00
2022-10-25T09:05:13.762Z,96562.56
2022-10-25T09:08:06.734Z,96571.16
2022-10-25T09:10:45.796Z,96571.25
2022-10-25T09:13:43.294Z,96572.38
2022-10-25T09:16:19.754Z,96586.19
2022-10-25T09:18:55.218Z,96576.16
2022-10-25T09:21:34.254Z,96576.94
2022-10-25T09:24:36.715Z,96576.16
2022-10-25T09:27:12.167Z,96577.19
2022-10-25T09:29:46.644Z,96570.63
2022-10-25T09:32:23.549Z,96578.09
2022-10-25T09:34:53.099Z,96573.31
2022-10-25T09:37:31.696Z,96585.84
2022-10-25T09:40:24.297Z,96573.09
2022-10-25T09:42:58.357Z,96576.59
2022-10-25T09:45:31.239Z,96588.72
2022-10-25T09:48:15.849Z,96582.03
2022-10-25T09:50:57.834Z,96592.78
2022-10-25T09:53:24.956Z,96594.97
2022-10-25T09:55:58.098Z,96593.75
2022-10-25T09:58:30.689Z,96593.16
2022-10-25T10:01:05.003Z,96585.78
2022-10-25T10:03:35.655Z,96590.22
2022-10-25T10:06:09.483Z,96586.38
2022-10-25T10:08:36.937Z,96581.25
2022-10-25T10:11:05.797Z,96577.13
2022-10-25T10:13:48.115Z,96579.84
2022-10-25T10:16:23.378Z,96576.88
2022-10-25T10:18:50.594Z,96574.31
2022-10-25T10:21:22.554Z,96567.91
2022-10-25T10:24:18.173Z,96563.25
2022-10-25T10:26:55.755Z,96565.34
2022-10-25T10:29:25.315Z,96568.00
2022-10-25T10:31:54.938Z,96569.97
2022-10-25T10:34:31.035Z,96577.25
2022-10-25T10:37:15.117Z,96575.88
2022-10-25T10:39:57.494Z,96569.63
2022-10-25T10:45:20.890Z,96570.47
2022-10-25T10:47:50.955Z,96576.06
2022-10-25T10:50:20.976Z,96565.94
2022-10-25T10:53:04.268Z,96557.91
2022-10-25T10:55:34.700Z,96561.84
2022-10-25T10:58:07.731Z,96548.72
2022-10-25T11:00:35.249Z,96557.59
2022-10-25T11:13:18.991Z,96556.59
2022-10-25T11:15:51.733Z,96551.81
2022-10-25T11:18:28.034Z,96548.31
2022-10-25T11:21:02.510Z,96556.59
2022-10-25T11:23:53.449Z,96550.66
2022-10-25T11:26:40.960Z,96542.56
2022-10-25T11:29:26.768Z,96552.28
2022-10-25T11:32:15.376Z,96552.28
2022-10-25T11:35:11.730Z,96554.53
2022-10-25T11:37:59.551Z,96548.38
2022-10-25T11:40:33.011Z,96541.47
2022-10-25T11:43:27.552Z,96542.34
2022-10-25T11:46:08.769Z,96534.13
2022-10-25T11:48:40.953Z,96532.41
2022-10-25T11:51:16.011Z,96529.97
2022-10-25T11:54:01.347Z,96535.44
2022-10-25T11:56:53.357Z,96527.38
2022-10-25T11:59:25.690Z,96536.34
2022-10-25T12:02:21.213Z,96537.25
2022-10-25T12:05:23.735Z,96526.56
2022-10-25T12:08:10.350Z,96541.28
2022-10-25T12:13:35.876Z,96526.47
2022-10-25T12:16:06.430Z,96527.34
2022-10-25T12:18:40.732Z,96532.69
2022-10-25T12:21:10.733Z,96525.94
2022-10-25T12:23:47.349Z,96530.16
2022-10-25T12:26:35.993Z,96528.94
2022-10-25T12:29:06.291Z,96530.34
2022-10-25T12:31:44.382Z,96528.78
2022-10-25T12:34:14.503Z,96525.03
2022-10-25T12:36:45.085Z,96511.38
2022-10-25T12:39:35.120Z,96505.47
2022-10-25T12:42:07.017Z,96506.47
2022-10-25T12:44:58.901Z,96506.19
2022-10-25T12:47:47.795Z,96505.38
2022-10-25T12:50:39.650Z,96496.06
2022-10-25T12:53:24.286Z,96498.66
2022-10-25T12:56:28.128Z,96498.94
2022-10-25T12:58:55.229Z,96507.97
2022-10-25T13:01:47.656Z,96498.19
2022-10-25T13:04:35.807Z,96498.66
2022-10-25T13:07:06.102Z,96499.44
2022-10-25T13:09:35.303Z,96511.59
2022-10-25T13:12:06.768Z,96503.31
2022-10-25T13:14:38.358Z,96499.22
2022-10-25T13:17:17.929Z,96496.44
2022-10-25T13:19:54.554Z,96490.88
2022-10-25T13:22:28.288Z,96487.28
2022-10-25T13:24:55.639Z,96491.53
2022-10-25T13:27:24.130Z,96495.34
2022-10-25T13:30:13.424Z,96493.59
2022-10-25T13:32:42.748Z,96481.19
2022-10-25T13:35:38.779Z,96486.84
2022-10-25T13:38:20.950Z,96479.31
2022-10-25T13:41:10.094Z,96485.59
2022-10-25T13:44:00.206Z,96490.97
2022-10-25T13:46:33.075Z,96493.28
2022-10-25T13:49:03.637Z,96493.69
2022-10-25T13:51:32.596Z,96496.66
2022-10-25T13:54:06.076Z,96500.84
2022-10-25T13:56:48.067Z,96500.47
2022-10-25T13:59:50.525Z,96513.34
2022-10-25T14:02:20.538Z,96506.00
2022-10-25T14:04:47.760Z,96516.56
2022-10-25T14:07:43.812Z,96508.59
2022-10-25T14:10:25.851Z,96515.13
2022-10-25T14:12:58.341Z,96524.69
2022-10-25T14:15:37.841Z,96522.66
2022-10-25T14:18:14.099Z,96527.47
2022-10-25T14:20:45.847Z,96520.09
2022-10-25T14:23:21.432Z,96517.97
2022-10-25T14:26:15.650Z,96530.88
2022-10-25T14:28:43.051Z,96524.75
2022-10-25T14:31:17.228Z,96522.44
2022-10-25T14:33:53.199Z,96525.22
2022-10-25T14:36:30.322Z,96530.47
2022-10-25T14:39:15.542Z,96528.81
2022-10-25T14:41:59.400Z,96525.78
2022-10-25T14:44:29.782Z,96528.06
2022-10-25T14:46:58.468Z,96523.44
2022-10-25T14:49:26.908Z,96521.19
2022-10-25T14:51:58.060Z,96523.25
2022-10-25T14:54:26.872Z,96532.13
2022-10-25T14:56:58.383Z,96527.00
2022-10-25T14:59:29.736Z,96526.41
2022-10-25T15:02:03.068Z,96526.56
2022-10-25T15:04:33.179Z,96532.28
2022-10-25T15:07:01.929Z,96527.16
2022-10-25T15:09:44.341Z,96531.66
2022-10-25T15:12:11.241Z,96535.88
2022-10-25T15:14:38.411Z,96536.81
2022-10-25T15:17:15.269Z,96542.88
2022-10-25T15:19:59.639Z,96533.53
2022-10-25T15:22:37.490Z,96530.81
2022-10-25T15:25:22.729Z,96536.28
2022-10-25T15:27:51.752Z,96534.34
2022-10-25T15:30:39.059Z,96535.78
2022-10-25T15:33:11.308Z,96545.47
2022-10-25T15:36:02.510Z,96536.91
2022-10-25T15:39:05.394Z,96536.94
2022-10-25T15:41:22.748Z,96540.91
2022-10-25T15:43:49.911Z,96544.53
2022-10-25T15:46:28.737Z,96552.38
2022-10-25T15:48:56.330Z,96545.88
2022-10-25T15:51:25.198Z,96553.44
2022-10-25T15:53:54.552Z,96551.34
2022-10-25T15:56:21.911Z,96561.75
2022-10-25T15:58:49.493Z,96556.84
2022-10-25T16:01:17.527Z,96555.63
2022-10-25T16:03:44.647Z,96555.41
2022-10-25T16:06:15.329Z,96559.16
2022-10-25T16:08:42.591Z,96567.69
2022-10-25T16:11:20.349Z,96567.19
2022-10-25T16:13:50.197Z,96563.78
2022-10-25T16:16:40.026Z,96571.00
2022-10-25T16:19:14.032Z,96564.94
2022-10-25T16:21:41.168Z,96571.03
2022-10-25T16:24:08.210Z,96569.75
2022-10-25T16:26:44.010Z,96578.47
2022-10-25T16:29:19.951Z,96585.13
2022-10-25T16:31:47.257Z,96587.81
2022-10-25T16:34:19.748Z,96590.47
2022-10-25T16:36:48.181Z,96592.06
2022-10-25T16:39:15.710Z,96591.56
2022-10-25T16:41:44.999Z,96593.97
2022-10-25T16:44:13.879Z,96598.47
2022-10-25T16:46:40.888Z,96596.59
2022-10-25T16:49:09.658Z,96601.13
2022-10-25T16:51:37.562Z,96602.97
2022-10-25T16:54:05.008Z,96609.56
2022-10-25T16:56:32.028Z,96614.09
2022-10-25T16:58:59.431Z,96609.31
2022-10-25T17:01:29.788Z,96604.84
2022-10-25T17:03:57.562Z,96612.50
2022-10-25T17:06:41.732Z,96615.97
2022-10-25T17:09:09.286Z,96616.75
2022-10-25T17:11:37.699Z,96608.81
2022-10-25T17:14:05.173Z,96617.03
2022-10-25T17:16:32.477Z,96616.25
2022-10-25T17:18:59.429Z,96617.53
2022-10-25T17:21:28.149Z,96624.41
2022-10-25T17:23:56.010Z,96621.75
2022-10-25T17:26:22.999Z,96629.16
2022-10-25T17:28:50.038Z,96635.22
2022-10-25T17:31:17.982Z,96630.22
2022-10-25T17:33:46.038Z,96629.94
2022-10-25T17:36:15.222Z,96628.34
2022-10-25T17:38:42.694Z,96635.19
2022-10-25T17:41:11.276Z,96639.16
2022-10-25T17:43:39.690Z,96646.00
2022-10-25T17:46:17.863Z,96643.63
2022-10-25T17:48:45.874Z,96644.91
2022-10-25T17:51:15.860Z,96650.72
2022-10-25T17:53:42.993Z,96655.19
2022-10-25T17:56:18.791Z,96648.31
2022-10-25T17:58:47.336Z,96653.03
2022-10-25T18:01:18.145Z,96648.53
2022-10-25T18:03:45.657Z,96641.66
2022-10-25T18:06:16.127Z,96644.31
2022-10-25T18:08:43.148Z,96651.09
2022-10-25T18:11:10.257Z,96650.34
2022-10-25T18:13:38.649Z,96644.22
2022-10-25T18:18:57.387Z,96647.63
2022-10-25T18:21:25.309Z,96646.56
2022-10-25T18:23:59.718Z,96652.63
2022-10-25T18:26:28.075Z,96648.13
2022-10-25T18:28:57.329Z,96649.22
2022-10-25T18:31:27.266Z,96648.91
2022-10-25T18:34:00.412Z,96647.06
2022-10-25T18:36:28.355Z,96650.44
2022-10-25T18:38:55.548Z,96647.78
2022-10-25T18:41:28.209Z,96643.00
2022-10-25T18:43:56.599Z,96653.53
2022-10-25T18:46:25.034Z,96645.00
2022-10-25T18:48:53.292Z,96650.53
2022-10-25T18:51:21.178Z,96650.00
2022-10-25T18:53:49.108Z,96663.69
2022-10-25T18:56:19.649Z,96663.69
2022-10-25T18:58:49.099Z,96662.94
2022-10-25T19:01:21.027Z,96662.19
2022-10-25T19:03:48.495Z,96657.69
2022-10-25T19:06:15.930Z,96659.25
2022-10-25T19:08:43.359Z,96658.44
2022-10-25T19:11:13.766Z,96661.81
2022-10-25T19:13:41.464Z,96653.19
2022-10-25T19:16:10.410Z,96664.78
2022-10-25T19:18:38.451Z,96660.31
2022-10-25T19:21:09.674Z,96668.53
2022-10-25T19:23:37.284Z,96668.78
2022-10-25T19:26:06.634Z,96667.78
2022-10-25T19:28:34.340Z,96662.78
2022-10-25T19:31:09.721Z,96666.47
2022-10-25T19:33:36.890Z,96667.25
2022-10-25T19:36:05.060Z,96667.47
2022-10-25T19:38:31.897Z,96669.81
2022-10-25T19:41:00.730Z,96670.81
2022-10-25T19:43:28.117Z,96666.25
2022-10-25T19:45:59.666Z,96665.38
2022-10-25T19:48:26.729Z,96668.81
2022-10-25T19:50:53.871Z,96660.38
2022-10-25T19:53:21.239Z,96665.09
2022-10-25T19:56:02.211Z,96656.16
2022-10-25T19:58:29.947Z,96659.28
2022-10-25T20:01:09.382Z,96666.59
2022-10-25T20:03:37.909Z,96664.69
2022-10-25T20:06:20.208Z,96669.94
2022-10-25T20:08:50.459Z,96660.34
2022-10-25T20:11:18.577Z,96666.69
2022-10-25T20:13:45.970Z,96665.88
2022-10-25T20:16:14.250Z,96664.50
2022-10-25T20:18:42.685Z,96664.22
2022-10-25T20:21:15.449Z,96671.03
2022-10-25T20:23:49.375Z,96666.56
2022-10-25T20:26:21.024Z,96664.50
2022-10-25T20:28:48.909Z,96670.97
2022-10-25T20:31:16.432Z,96666.75
2022-10-25T20:33:43.548Z,96668.34
2022-10-25T20:36:12.793Z,96665.63
2022-10-25T20:38:40.544Z,96661.97
2022-10-25T20:41:13.734Z,96661.41
2022-10-25T20:43:41.770Z,96665.59
2022-10-25T20:46:09.339Z,96663.44
2022-10-25T20:48:36.939Z,96669.69
2022-10-25T20:51:06.967Z,96665.72
2022-10-25T20:53:36.308Z,96665.41
2022-10-25T20:56:03.379Z,96669.06
2022-10-25T20:58:30.428Z,96669.56
2022-10-25T21:00:57.726Z,96668.78
2022-10-25T21:03:29.909Z,96662.38
2022-10-25T21:05:58.820Z,96662.72
2022-10-25T21:08:26.450Z,96665.81
2022-10-25T21:10:55.279Z,96659.75
2022-10-25T21:13:23.308Z,96671.31
2022-10-25T21:15:50.809Z,96663.19
2022-10-25T21:18:18.362Z,96665.03
2022-10-25T21:20:47.269Z,96664.22
2022-10-25T21:23:15.129Z,96662.31
2022-10-25T21:25:42.028Z,96657.28
2022-10-25T21:28:09.040Z,96658.81
2022-10-25T21:30:35.972Z,96657.69
2022-10-25T21:33:03.799Z,96661.91
2022-10-25T21:35:32.349Z,96659.34
2022-10-25T21:37:59.368Z,96661.97
2022-10-25T21:40:26.332Z,96653.06
2022-10-25T21:42:53.329Z,96660.22
2022-10-25T21:45:20.289Z,96658.16
2022-10-25T21:47:47.480Z,96663.97
2022-10-25T21:50:15.969Z,96661.13
2022-10-25T21:52:42.847Z,96652.47
2022-10-25T21:55:10.090Z,96655.06
2022-10-25T21:57:37.119Z,96651.06
2022-10-25T22:00:05.668Z,96650.94
2022-10-25T22:02:40.072Z,96648.88
2022-10-25T22:05:07.431Z,96648.50
2022-10-25T22:07:34.387Z,96641.66
2022-10-25T22:10:01.454Z,96640.16
2022-10-25T22:12:28.369Z,96644.59
2022-10-25T22:14:55.369Z,96637.75
2022-10-25T22:17:23.401Z,96632.16
2022-10-25T22:19:50.311Z,96639.81
2022-10-25T22:22:17.301Z,96636.63
2022-10-25T22:24:44.310Z,96644.22
2022-10-25T22:27:11.230Z,96640.72
2022-10-25T22:29:38.179Z,96643.81
2022-10-25T22:32:05.299Z,96644.84
2022-10-25T22:34:32.209Z,96648.22
2022-10-25T22:37:01.447Z,96640.81
2022-10-25T22:39:28.510Z,96639.38
2022-10-25T22:41:55.992Z,96644.78
2022-10-25T22:47:09.839Z,96644.78
2022-10-25T22:49:36.908Z,96647.91
2022-10-25T22:52:04.008Z,96647.91
2022-10-25T22:54:31.030Z,96645.91
2022-10-25T22:56:58.208Z,96640.66
2022-10-25T22:59:25.109Z,96637.00
2022-10-25T23:01:53.236Z,96640.91
2022-10-25T23:04:20.143Z,96636.38
2022-10-25T23:06:47.091Z,96637.97
2022-10-25T23:09:14.117Z,96637.16
2022-10-25T23:11:41.571Z,96635.34
2022-10-25T23:14:13.477Z,96636.91
2022-10-25T23:16:43.635Z,96633.19
2022-10-25T23:19:10.601Z,96636.91
2022-10-25T23:21:37.660Z,96640.66
2022-10-25T23:24:04.963Z,96632.56
2022-10-25T23:26:34.081Z,96634.91
2022-10-25T23:29:01.425Z,96637.31
2022-10-25T23:31:29.520Z,96625.78
2022-10-25T23:33:58.680Z,96627.03
2022-10-25T23:36:28.231Z,96619.41
2022-10-25T23:38:56.561Z,96623.31
2022-10-25T23:41:23.821Z,96625.38
2022-10-25T23:43:50.851Z,96622.22
2022-10-25T23:46:18.143Z,96627.69
2022-10-25T23:48:45.081Z,96623.13
2022-10-25T23:51:14.723Z,96633.34
2022-10-25T23:53:42.450Z,96626.72
2022-10-25T23:56:11.421Z,96631.19
2022-10-25T23:58:39.190Z,96625.13
